sensor_id;sensor_type;location;lat;lon;timestamp;temperature;humidity
29775;DHT22;16676;51.202;6.774;2024-03-29T00:01:55;17.80;64.50
29775;DHT22;16676;51.202;6.774;2024-03-29T00:05:56;17.80;64.90
29775;DHT22;16676;51.202;6.774;2024-03-29T00:09:58;17.80;64.90
29775;DHT22;16676;51.202;6.774;2024-03-29T00:13:59;17.70;64.60
29775;DHT22;16676;51.202;6.774;2024-03-29T00:18:00;17.70;64.70
29775;DHT22;16676;51.202;6.774;2024-03-29T00:22:01;17.70;64.80
29775;DHT22;16676;51.202;6.774;2024-03-29T00:26:04;17.70;65.20
29775;DHT22;16676;51.202;6.774;2024-03-29T00:30:06;17.70;64.80
29775;DHT22;16676;51.202;6.774;2024-03-29T00:34:07;17.70;65.20
29775;DHT22;16676;51.202;6.774;2024-03-29T00:38:08;17.70;65.20
29775;DHT22;16676;51.202;6.774;2024-03-29T00:42:11;17.70;65.10
29775;DHT22;16676;51.202;6.774;2024-03-29T00:46:12;17.70;65.00
29775;DHT22;16676;51.202;6.774;2024-03-29T00:50:13;17.70;65.20
29775;DHT22;16676;51.202;6.774;2024-03-29T00:54:14;17.70;65.30
29775;DHT22;16676;51.202;6.774;2024-03-29T00:58:17;17.70;64.90
29775;DHT22;16676;51.202;6.774;2024-03-29T01:02:18;17.70;65.00
29775;DHT22;16676;51.202;6.774;2024-03-29T01:06:20;17.70;65.00
29775;DHT22;16676;51.202;6.774;2024-03-29T01:10:21;17.70;64.80
29775;DHT22;16676;51.202;6.774;2024-03-29T01:14:23;17.60;65.20
29775;DHT22;16676;51.202;6.774;2024-03-29T01:18:24;17.60;64.60
29775;DHT22;16676;51.202;6.774;2024-03-29T01:22:26;17.60;64.50
29775;DHT22;16676;51.202;6.774;2024-03-29T01:26:27;17.60;64.70
29775;DHT22;16676;51.202;6.774;2024-03-29T01:30:29;17.60;64.70
29775;DHT22;16676;51.202;6.774;2024-03-29T01:34:30;17.60;64.70
29775;DHT22;16676;51.202;6.774;2024-03-29T01:38:31;17.60;64.60
29775;DHT22;16676;51.202;6.774;2024-03-29T01:42:32;17.60;64.60
29775;DHT22;16676;51.202;6.774;2024-03-29T01:46:36;17.60;65.00
29775;DHT22;16676;51.202;6.774;2024-03-29T01:50:38;17.60;65.60
29775;DHT22;16676;51.202;6.774;2024-03-29T01:54:42;17.60;64.80
29775;DHT22;16676;51.202;6.774;2024-03-29T01:58:44;17.60;65.20
29775;DHT22;16676;51.202;6.774;2024-03-29T02:02:48;17.60;64.50
29775;DHT22;16676;51.202;6.774;2024-03-29T02:06:50;17.60;64.60
29775;DHT22;16676;51.202;6.774;2024-03-29T02:10:52;17.50;65.10
29775;DHT22;16676;51.202;6.774;2024-03-29T02:14:54;17.50;64.20
29775;DHT22;16676;51.202;6.774;2024-03-29T02:18:57;17.60;64.50
29775;DHT22;16676;51.202;6.774;2024-03-29T02:23:15;17.50;64.60
29775;DHT22;16676;51.202;6.774;2024-03-29T02:27:20;17.50;64.90
29775;DHT22;16676;51.202;6.774;2024-03-29T02:31:23;17.50;65.50
29775;DHT22;16676;51.202;6.774;2024-03-29T02:35:25;17.50;64.30
29775;DHT22;16676;51.202;6.774;2024-03-29T02:39:28;17.50;64.90
29775;DHT22;16676;51.202;6.774;2024-03-29T02:43:31;17.50;65.20
29775;DHT22;16676;51.202;6.774;2024-03-29T02:47:33;17.50;64.90
29775;DHT22;16676;51.202;6.774;2024-03-29T02:51:35;17.40;64.70
29775;DHT22;16676;51.202;6.774;2024-03-29T02:55:37;17.40;64.30
29775;DHT22;16676;51.202;6.774;2024-03-29T02:59:41;17.40;65.60
29775;DHT22;16676;51.202;6.774;2024-03-29T03:03:43;17.40;64.10
29775;DHT22;16676;51.202;6.774;2024-03-29T03:07:45;17.40;64.60
29775;DHT22;16676;51.202;6.774;2024-03-29T03:12:05;17.40;64.70
29775;DHT22;16676;51.202;6.774;2024-03-29T03:16:08;17.40;64.30
29775;DHT22;16676;51.202;6.774;2024-03-29T03:20:11;17.50;65.00
29775;DHT22;16676;51.202;6.774;2024-03-29T03:24:14;17.40;64.50
29775;DHT22;16676;51.202;6.774;2024-03-29T03:28:16;17.50;64.50
29775;DHT22;16676;51.202;6.774;2024-03-29T03:32:19;17.50;64.90
29775;DHT22;16676;51.202;6.774;2024-03-29T03:36:21;17.40;64.70
29775;DHT22;16676;51.202;6.774;2024-03-29T03:40:23;17.40;64.70
29775;DHT22;16676;51.202;6.774;2024-03-29T03:44:26;17.40;64.70
29775;DHT22;16676;51.202;6.774;2024-03-29T03:48:30;17.40;65.00
29775;DHT22;16676;51.202;6.774;2024-03-29T03:52:32;17.40;64.70
29775;DHT22;16676;51.202;6.774;2024-03-29T03:56:34;17.40;65.00
29775;DHT22;16676;51.202;6.774;2024-03-29T04:00:37;17.40;65.00
29775;DHT22;16676;51.202;6.774;2024-03-29T04:04:41;17.40;65.00
29775;DHT22;16676;51.202;6.774;2024-03-29T04:08:44;17.40;66.90
29775;DHT22;16676;51.202;6.774;2024-03-29T04:12:46;17.40;64.90
29775;DHT22;16676;51.202;6.774;2024-03-29T04:16:48;17.30;64.80
29775;DHT22;16676;51.202;6.774;2024-03-29T04:20:57;17.40;64.90
29775;DHT22;16676;51.202;6.774;2024-03-29T04:24:59;17.40;65.10
29775;DHT22;16676;51.202;6.774;2024-03-29T04:29:01;17.30;64.80
29775;DHT22;16676;51.202;6.774;2024-03-29T04:33:03;17.30;64.80
29775;DHT22;16676;51.202;6.774;2024-03-29T04:37:06;17.40;65.30
29775;DHT22;16676;51.202;6.774;2024-03-29T04:41:08;17.30;64.60
29775;DHT22;16676;51.202;6.774;2024-03-29T04:45:10;17.30;65.00
29775;DHT22;16676;51.202;6.774;2024-03-29T04:49:12;17.30;65.00
29775;DHT22;16676;51.202;6.774;2024-03-29T04:53:15;17.30;65.10
29775;DHT22;16676;51.202;6.774;2024-03-29T04:57:17;17.30;64.90
29775;DHT22;16676;51.202;6.774;2024-03-29T05:01:19;17.30;64.90
29775;DHT22;16676;51.202;6.774;2024-03-29T05:05:21;17.30;64.80
29775;DHT22;16676;51.202;6.774;2024-03-29T05:09:25;17.30;64.90
29775;DHT22;16676;51.202;6.774;2024-03-29T05:13:27;17.30;65.20
29775;DHT22;16676;51.202;6.774;2024-03-29T05:17:31;17.30;65.40
29775;DHT22;16676;51.202;6.774;2024-03-29T05:21:33;17.30;65.30
29775;DHT22;16676;51.202;6.774;2024-03-29T05:25:36;17.30;65.10
29775;DHT22;16676;51.202;6.774;2024-03-29T05:29:38;17.30;65.20
29775;DHT22;16676;51.202;6.774;2024-03-29T05:33:40;17.30;65.30
29775;DHT22;16676;51.202;6.774;2024-03-29T05:37:42;17.30;65.40
29775;DHT22;16676;51.202;6.774;2024-03-29T05:41:51;17.30;65.50
29775;DHT22;16676;51.202;6.774;2024-03-29T05:45:53;17.30;65.60
29775;DHT22;16676;51.202;6.774;2024-03-29T05:49:55;17.30;65.40
29775;DHT22;16676;51.202;6.774;2024-03-29T05:53:57;17.30;65.30
29775;DHT22;16676;51.202;6.774;2024-03-29T05:58:00;17.30;65.50
29775;DHT22;16676;51.202;6.774;2024-03-29T06:02:03;17.30;65.40
29775;DHT22;16676;51.202;6.774;2024-03-29T06:06:06;17.30;65.30
29775;DHT22;16676;51.202;6.774;2024-03-29T06:10:11;17.30;65.40
29775;DHT22;16676;51.202;6.774;2024-03-29T06:14:14;17.30;65.80
29775;DHT22;16676;51.202;6.774;2024-03-29T06:18:34;17.30;65.40
29775;DHT22;16676;51.202;6.774;2024-03-29T06:22:36;17.30;66.50
29775;DHT22;16676;51.202;6.774;2024-03-29T06:26:38;17.30;65.40
29775;DHT22;16676;51.202;6.774;2024-03-29T06:30:42;17.20;65.30
29775;DHT22;16676;51.202;6.774;2024-03-29T06:34:44;17.20;65.40
29775;DHT22;16676;51.202;6.774;2024-03-29T06:38:46;17.20;65.30
29775;DHT22;16676;51.202;6.774;2024-03-29T06:42:48;17.20;65.40
29775;DHT22;16676;51.202;6.774;2024-03-29T06:46:51;17.20;65.40
29775;DHT22;16676;51.202;6.774;2024-03-29T06:50:53;17.20;65.60
29775;DHT22;16676;51.202;6.774;2024-03-29T06:54:55;17.20;65.70
29775;DHT22;16676;51.202;6.774;2024-03-29T06:58:57;17.20;65.50
29775;DHT22;16676;51.202;6.774;2024-03-29T07:03:01;17.20;65.60
29775;DHT22;16676;51.202;6.774;2024-03-29T07:07:03;17.20;66.30
29775;DHT22;16676;51.202;6.774;2024-03-29T07:11:05;17.20;65.60
29775;DHT22;16676;51.202;6.774;2024-03-29T07:15:08;17.20;66.20
29775;DHT22;16676;51.202;6.774;2024-03-29T07:19:11;17.20;65.90
29775;DHT22;16676;51.202;6.774;2024-03-29T07:23:16;17.20;67.00
29775;DHT22;16676;51.202;6.774;2024-03-29T07:27:18;17.10;69.20
29775;DHT22;16676;51.202;6.774;2024-03-29T07:31:21;17.20;72.60
29775;DHT22;16676;51.202;6.774;2024-03-29T07:35:24;17.30;75.60
29775;DHT22;16676;51.202;6.774;2024-03-29T07:39:26;17.30;78.40
29775;DHT22;16676;51.202;6.774;2024-03-29T07:43:37;17.40;80.10
29775;DHT22;16676;51.202;6.774;2024-03-29T07:47:39;17.40;82.90
29775;DHT22;16676;51.202;6.774;2024-03-29T07:51:43;17.50;85.40
29775;DHT22;16676;51.202;6.774;2024-03-29T07:55:45;17.50;87.30
29775;DHT22;16676;51.202;6.774;2024-03-29T07:59:47;17.60;90.10
29775;DHT22;16676;51.202;6.774;2024-03-29T08:03:50;17.60;90.60
29775;DHT22;16676;51.202;6.774;2024-03-29T08:07:55;17.70;86.20
29775;DHT22;16676;51.202;6.774;2024-03-29T08:11:57;17.80;75.60
29775;DHT22;16676;51.202;6.774;2024-03-29T08:16:00;17.60;72.40
29775;DHT22;16676;51.202;6.774;2024-03-29T08:20:02;17.50;71.00
29775;DHT22;16676;51.202;6.774;2024-03-29T08:24:06;17.40;70.50
29775;DHT22;16676;51.202;6.774;2024-03-29T08:28:08;17.30;69.90
29775;DHT22;16676;51.202;6.774;2024-03-29T08:32:11;17.30;69.30
29775;DHT22;16676;51.202;6.774;2024-03-29T08:36:13;17.20;69.10
29775;DHT22;16676;51.202;6.774;2024-03-29T08:40:17;16.60;68.50
29775;DHT22;16676;51.202;6.774;2024-03-29T08:44:19;16.10;70.30
29775;DHT22;16676;51.202;6.774;2024-03-29T08:48:22;15.80;72.50
29775;DHT22;16676;51.202;6.774;2024-03-29T08:52:24;15.70;73.70
29775;DHT22;16676;51.202;6.774;2024-03-29T08:56:27;15.60;74.00
29775;DHT22;16676;51.202;6.774;2024-03-29T09:00:30;15.60;74.60
29775;DHT22;16676;51.202;6.774;2024-03-29T09:04:32;15.80;74.00
29775;DHT22;16676;51.202;6.774;2024-03-29T09:08:35;15.90;73.40
29775;DHT22;16676;51.202;6.774;2024-03-29T09:12:39;15.70;73.30
29775;DHT22;16676;51.202;6.774;2024-03-29T09:16:40;15.60;74.00
29775;DHT22;16676;51.202;6.774;2024-03-29T09:20:43;15.50;74.30
29775;DHT22;16676;51.202;6.774;2024-03-29T09:24:46;15.50;74.60
29775;DHT22;16676;51.202;6.774;2024-03-29T09:28:49;15.50;75.00
29775;DHT22;16676;51.202;6.774;2024-03-29T09:32:51;15.50;75.30
29775;DHT22;16676;51.202;6.774;2024-03-29T09:36:53;15.50;75.30
29775;DHT22;16676;51.202;6.774;2024-03-29T09:41:03;15.50;75.20
29775;DHT22;16676;51.202;6.774;2024-03-29T09:45:13;15.50;75.50
29775;DHT22;16676;51.202;6.774;2024-03-29T09:49:16;15.60;75.60
29775;DHT22;16676;51.202;6.774;2024-03-29T09:53:20;15.40;75.90
29775;DHT22;16676;51.202;6.774;2024-03-29T09:57:23;15.50;75.60
29775;DHT22;16676;51.202;6.774;2024-03-29T10:01:31;15.70;74.60
29775;DHT22;16676;51.202;6.774;2024-03-29T10:05:34;15.80;74.00
29775;DHT22;16676;51.202;6.774;2024-03-29T10:09:36;15.90;73.10
29775;DHT22;16676;51.202;6.774;2024-03-29T10:13:39;15.90;72.80
29775;DHT22;16676;51.202;6.774;2024-03-29T10:17:46;15.90;72.40
29775;DHT22;16676;51.202;6.774;2024-03-29T10:21:49;15.90;72.20
29775;DHT22;16676;51.202;6.774;2024-03-29T10:25:51;16.00;73.40
29775;DHT22;16676;51.202;6.774;2024-03-29T10:29:53;16.10;72.90
29775;DHT22;16676;51.202;6.774;2024-03-29T10:34:02;16.20;73.00
29775;DHT22;16676;51.202;6.774;2024-03-29T10:38:04;16.20;73.00
29775;DHT22;16676;51.202;6.774;2024-03-29T10:42:06;16.20;73.10
29775;DHT22;16676;51.202;6.774;2024-03-29T10:46:11;16.30;72.90
29775;DHT22;16676;51.202;6.774;2024-03-29T10:50:17;16.40;73.00
29775;DHT22;16676;51.202;6.774;2024-03-29T10:54:22;16.40;73.20
29775;DHT22;16676;51.202;6.774;2024-03-29T10:58:29;16.50;75.10
29775;DHT22;16676;51.202;6.774;2024-03-29T11:02:39;16.60;75.00
29775;DHT22;16676;51.202;6.774;2024-03-29T11:06:47;16.70;75.40
29775;DHT22;16676;51.202;6.774;2024-03-29T11:10:56;16.70;75.50
29775;DHT22;16676;51.202;6.774;2024-03-29T11:15:02;16.70;75.70
29775;DHT22;16676;51.202;6.774;2024-03-29T11:19:05;16.80;75.90
29775;DHT22;16676;51.202;6.774;2024-03-29T11:23:10;16.90;76.00
29775;DHT22;16676;51.202;6.774;2024-03-29T11:27:13;16.90;75.70
29775;DHT22;16676;51.202;6.774;2024-03-29T11:31:17;16.90;75.60
29775;DHT22;16676;51.202;6.774;2024-03-29T11:35:20;17.00;75.70
29775;DHT22;16676;51.202;6.774;2024-03-29T11:39:26;17.00;75.60
29775;DHT22;16676;51.202;6.774;2024-03-29T11:43:28;17.10;75.70
29775;DHT22;16676;51.202;6.774;2024-03-29T11:47:30;17.10;76.10
29775;DHT22;16676;51.202;6.774;2024-03-29T11:51:34;17.10;76.20
29775;DHT22;16676;51.202;6.774;2024-03-29T11:55:37;17.20;76.40
29775;DHT22;16676;51.202;6.774;2024-03-29T11:59:39;17.20;76.80
29775;DHT22;16676;51.202;6.774;2024-03-29T12:03:42;17.20;76.80
29775;DHT22;16676;51.202;6.774;2024-03-29T12:07:46;17.30;77.00
29775;DHT22;16676;51.202;6.774;2024-03-29T12:11:49;17.30;77.20
29775;DHT22;16676;51.202;6.774;2024-03-29T12:15:51;17.30;77.40
29775;DHT22;16676;51.202;6.774;2024-03-29T12:19:58;17.30;77.50
29775;DHT22;16676;51.202;6.774;2024-03-29T12:24:02;17.30;77.50
29775;DHT22;16676;51.202;6.774;2024-03-29T12:28:05;17.30;77.40
29775;DHT22;16676;51.202;6.774;2024-03-29T12:32:08;17.30;77.30
29775;DHT22;16676;51.202;6.774;2024-03-29T12:36:11;17.30;77.30
29775;DHT22;16676;51.202;6.774;2024-03-29T12:40:16;17.30;77.50
29775;DHT22;16676;51.202;6.774;2024-03-29T12:44:24;17.30;77.70
29775;DHT22;16676;51.202;6.774;2024-03-29T12:48:26;17.30;77.90
29775;DHT22;16676;51.202;6.774;2024-03-29T12:52:35;17.30;77.90
29775;DHT22;16676;51.202;6.774;2024-03-29T12:56:37;17.30;77.80
29775;DHT22;16676;51.202;6.774;2024-03-29T13:00:42;17.40;77.60
29775;DHT22;16676;51.202;6.774;2024-03-29T13:04:44;17.40;77.90
29775;DHT22;16676;51.202;6.774;2024-03-29T13:08:46;17.40;77.80
29775;DHT22;16676;51.202;6.774;2024-03-29T13:12:50;17.40;77.80
29775;DHT22;16676;51.202;6.774;2024-03-29T13:16:53;17.40;77.50
29775;DHT22;16676;51.202;6.774;2024-03-29T13:20:55;17.40;77.30
29775;DHT22;16676;51.202;6.774;2024-03-29T13:25:00;17.40;77.30
29775;DHT22;16676;51.202;6.774;2024-03-29T13:29:02;17.40;77.30
29775;DHT22;16676;51.202;6.774;2024-03-29T13:33:05;17.50;76.80
29775;DHT22;16676;51.202;6.774;2024-03-29T13:37:07;17.60;76.40
29775;DHT22;16676;51.202;6.774;2024-03-29T13:41:09;17.70;75.90
29775;DHT22;16676;51.202;6.774;2024-03-29T13:45:14;17.70;75.50
29775;DHT22;16676;51.202;6.774;2024-03-29T13:49:17;17.80;75.40
29775;DHT22;16676;51.202;6.774;2024-03-29T13:53:21;17.80;75.30
29775;DHT22;16676;51.202;6.774;2024-03-29T13:57:23;17.80;75.00
29775;DHT22;16676;51.202;6.774;2024-03-29T14:01:25;17.90;74.40
29775;DHT22;16676;51.202;6.774;2024-03-29T14:05:28;17.90;75.00
29775;DHT22;16676;51.202;6.774;2024-03-29T14:09:30;17.90;74.20
29775;DHT22;16676;51.202;6.774;2024-03-29T14:13:32;17.90;74.00
29775;DHT22;16676;51.202;6.774;2024-03-29T14:17:34;17.90;73.90
29775;DHT22;16676;51.202;6.774;2024-03-29T14:21:39;17.90;73.80
29775;DHT22;16676;51.202;6.774;2024-03-29T14:25:42;17.90;73.90
29775;DHT22;16676;51.202;6.774;2024-03-29T14:29:44;17.90;73.90
29775;DHT22;16676;51.202;6.774;2024-03-29T14:33:47;17.90;74.50
29775;DHT22;16676;51.202;6.774;2024-03-29T14:37:50;17.90;73.60
29775;DHT22;16676;51.202;6.774;2024-03-29T14:41:52;18.00;73.60
29775;DHT22;16676;51.202;6.774;2024-03-29T14:45:54;18.00;73.40
29775;DHT22;16676;51.202;6.774;2024-03-29T14:49:56;18.00;73.20
29775;DHT22;16676;51.202;6.774;2024-03-29T14:54:00;18.00;73.30
29775;DHT22;16676;51.202;6.774;2024-03-29T14:58:04;18.00;73.20
29775;DHT22;16676;51.202;6.774;2024-03-29T15:02:06;18.10;73.10
29775;DHT22;16676;51.202;6.774;2024-03-29T15:06:08;18.00;72.60
29775;DHT22;16676;51.202;6.774;2024-03-29T15:10:11;18.10;72.50
29775;DHT22;16676;51.202;6.774;2024-03-29T15:14:14;18.10;72.40
29775;DHT22;16676;51.202;6.774;2024-03-29T15:18:17;18.00;72.80
29775;DHT22;16676;51.202;6.774;2024-03-29T15:22:19;18.00;72.40
29775;DHT22;16676;51.202;6.774;2024-03-29T15:26:23;18.00;72.30
29775;DHT22;16676;51.202;6.774;2024-03-29T15:30:27;18.10;72.30
29775;DHT22;16676;51.202;6.774;2024-03-29T15:34:28;18.10;72.40
29775;DHT22;16676;51.202;6.774;2024-03-29T15:38:30;18.00;72.00
29775;DHT22;16676;51.202;6.774;2024-03-29T15:42:34;18.10;72.20
29775;DHT22;16676;51.202;6.774;2024-03-29T15:46:38;18.00;71.90
29775;DHT22;16676;51.202;6.774;2024-03-29T15:50:41;18.00;71.80
29775;DHT22;16676;51.202;6.774;2024-03-29T15:54:43;18.10;71.90
29775;DHT22;16676;51.202;6.774;2024-03-29T15:58:46;18.00;71.80
29775;DHT22;16676;51.202;6.774;2024-03-29T16:02:49;18.10;72.00
29775;DHT22;16676;51.202;6.774;2024-03-29T16:06:51;18.00;71.80
29775;DHT22;16676;51.202;6.774;2024-03-29T16:10:54;18.10;71.90
29775;DHT22;16676;51.202;6.774;2024-03-29T16:14:58;18.10;71.70
29775;DHT22;16676;51.202;6.774;2024-03-29T16:19:00;18.10;71.70
29775;DHT22;16676;51.202;6.774;2024-03-29T16:23:03;18.10;72.00
29775;DHT22;16676;51.202;6.774;2024-03-29T16:27:05;18.10;72.00
29775;DHT22;16676;51.202;6.774;2024-03-29T16:31:09;18.10;72.00
29775;DHT22;16676;51.202;6.774;2024-03-29T16:35:10;18.10;72.10
29775;DHT22;16676;51.202;6.774;2024-03-29T16:39:13;18.10;72.50
29775;DHT22;16676;51.202;6.774;2024-03-29T16:43:15;18.10;72.10
29775;DHT22;16676;51.202;6.774;2024-03-29T16:47:18;18.10;71.70
29775;DHT22;16676;51.202;6.774;2024-03-29T16:51:20;18.00;72.00
29775;DHT22;16676;51.202;6.774;2024-03-29T16:55:22;18.10;71.70
29775;DHT22;16676;51.202;6.774;2024-03-29T16:59:26;18.10;71.70
29775;DHT22;16676;51.202;6.774;2024-03-29T17:03:29;18.00;71.80
29775;DHT22;16676;51.202;6.774;2024-03-29T17:07:31;18.10;72.00
29775;DHT22;16676;51.202;6.774;2024-03-29T17:11:33;18.00;71.90
29775;DHT22;16676;51.202;6.774;2024-03-29T17:15:35;18.00;71.50
29775;DHT22;16676;51.202;6.774;2024-03-29T17:19:38;18.00;71.70
29775;DHT22;16676;51.202;6.774;2024-03-29T17:23:40;18.00;71.70
29775;DHT22;16676;51.202;6.774;2024-03-29T17:27:42;18.00;72.10
29775;DHT22;16676;51.202;6.774;2024-03-29T17:31:44;18.00;72.00
29775;DHT22;16676;51.202;6.774;2024-03-29T17:35:47;18.00;71.90
29775;DHT22;16676;51.202;6.774;2024-03-29T17:39:50;18.00;71.70
29775;DHT22;16676;51.202;6.774;2024-03-29T17:43:52;18.00;72.00
29775;DHT22;16676;51.202;6.774;2024-03-29T17:47:54;18.00;72.30
29775;DHT22;16676;51.202;6.774;2024-03-29T17:51:57;18.00;71.70
29775;DHT22;16676;51.202;6.774;2024-03-29T17:55:58;18.00;71.60
29775;DHT22;16676;51.202;6.774;2024-03-29T18:00:00;18.00;71.40
29775;DHT22;16676;51.202;6.774;2024-03-29T18:04:09;18.00;71.40
29775;DHT22;16676;51.202;6.774;2024-03-29T18:08:13;18.00;71.60
29775;DHT22;16676;51.202;6.774;2024-03-29T18:12:14;17.90;71.30
29775;DHT22;16676;51.202;6.774;2024-03-29T18:16:16;18.00;71.20
29775;DHT22;16676;51.202;6.774;2024-03-29T18:20:17;18.00;72.40
29775;DHT22;16676;51.202;6.774;2024-03-29T18:24:20;17.90;71.90
29775;DHT22;16676;51.202;6.774;2024-03-29T18:28:23;18.00;71.30
29775;DHT22;16676;51.202;6.774;2024-03-29T18:32:27;18.00;71.60
29775;DHT22;16676;51.202;6.774;2024-03-29T18:36:29;18.00;71.10
29775;DHT22;16676;51.202;6.774;2024-03-29T18:40:33;17.90;71.00
29775;DHT22;16676;51.202;6.774;2024-03-29T18:44:35;17.90;71.20
29775;DHT22;16676;51.202;6.774;2024-03-29T18:48:37;17.90;71.20
29775;DHT22;16676;51.202;6.774;2024-03-29T18:52:39;17.90;71.30
29775;DHT22;16676;51.202;6.774;2024-03-29T18:56:43;17.90;70.80
29775;DHT22;16676;51.202;6.774;2024-03-29T19:00:44;17.90;71.90
29775;DHT22;16676;51.202;6.774;2024-03-29T19:04:47;17.90;70.90
29775;DHT22;16676;51.202;6.774;2024-03-29T19:08:48;17.90;71.30
29775;DHT22;16676;51.202;6.774;2024-03-29T19:12:52;17.90;71.70
29775;DHT22;16676;51.202;6.774;2024-03-29T19:16:55;17.80;71.80
29775;DHT22;16676;51.202;6.774;2024-03-29T19:20:57;17.90;71.90
29775;DHT22;16676;51.202;6.774;2024-03-29T19:24:59;17.90;71.30
29775;DHT22;16676;51.202;6.774;2024-03-29T19:29:03;17.90;71.20
29775;DHT22;16676;51.202;6.774;2024-03-29T19:33:05;17.80;71.40
29775;DHT22;16676;51.202;6.774;2024-03-29T19:37:07;17.90;71.50
29775;DHT22;16676;51.202;6.774;2024-03-29T19:41:07;17.80;72.00
29775;DHT22;16676;51.202;6.774;2024-03-29T19:45:11;17.80;72.00
29775;DHT22;16676;51.202;6.774;2024-03-29T19:49:14;17.80;71.20
29775;DHT22;16676;51.202;6.774;2024-03-29T19:53:19;17.90;71.80
29775;DHT22;16676;51.202;6.774;2024-03-29T19:57:21;17.80;71.30
29775;DHT22;16676;51.202;6.774;2024-03-29T20:01:24;17.80;71.60
29775;DHT22;16676;51.202;6.774;2024-03-29T20:05:26;17.80;71.30
29775;DHT22;16676;51.202;6.774;2024-03-29T20:09:28;17.80;71.90
29775;DHT22;16676;51.202;6.774;2024-03-29T20:13:31;17.80;72.20
29775;DHT22;16676;51.202;6.774;2024-03-29T20:17:36;17.80;71.20
29775;DHT22;16676;51.202;6.774;2024-03-29T20:21:38;17.80;72.10
29775;DHT22;16676;51.202;6.774;2024-03-29T20:25:40;17.80;72.60
29775;DHT22;16676;51.202;6.774;2024-03-29T20:29:43;17.80;72.60
29775;DHT22;16676;51.202;6.774;2024-03-29T20:33:46;17.80;72.10
29775;DHT22;16676;51.202;6.774;2024-03-29T20:37:48;17.80;72.30
29775;DHT22;16676;51.202;6.774;2024-03-29T20:41:50;17.80;72.60
29775;DHT22;16676;51.202;6.774;2024-03-29T20:45:52;17.80;71.90
29775;DHT22;16676;51.202;6.774;2024-03-29T20:49:56;17.80;72.10
29775;DHT22;16676;51.202;6.774;2024-03-29T20:53:58;17.80;71.70
29775;DHT22;16676;51.202;6.774;2024-03-29T20:58:00;17.70;72.30
29775;DHT22;16676;51.202;6.774;2024-03-29T21:02:02;17.70;72.10
29775;DHT22;16676;51.202;6.774;2024-03-29T21:06:23;17.70;71.60
29775;DHT22;16676;51.202;6.774;2024-03-29T21:10:25;17.80;72.80
29775;DHT22;16676;51.202;6.774;2024-03-29T21:14:27;17.70;73.20
29775;DHT22;16676;51.202;6.774;2024-03-29T21:18:29;17.70;72.30
29775;DHT22;16676;51.202;6.774;2024-03-29T21:22:32;17.70;72.60
29775;DHT22;16676;51.202;6.774;2024-03-29T21:26:35;17.70;71.80
29775;DHT22;16676;51.202;6.774;2024-03-29T21:30:36;17.70;72.30
29775;DHT22;16676;51.202;6.774;2024-03-29T21:34:40;17.70;72.20
29775;DHT22;16676;51.202;6.774;2024-03-29T21:38:42;17.70;72.50
29775;DHT22;16676;51.202;6.774;2024-03-29T21:42:44;17.70;72.30
29775;DHT22;16676;51.202;6.774;2024-03-29T21:46:46;17.70;71.90
29775;DHT22;16676;51.202;6.774;2024-03-29T21:50:48;17.70;72.20
29775;DHT22;16676;51.202;6.774;2024-03-29T21:54:52;17.70;71.80
29775;DHT22;16676;51.202;6.774;2024-03-29T21:58:54;17.70;72.00
29775;DHT22;16676;51.202;6.774;2024-03-29T22:02:56;17.70;72.00
29775;DHT22;16676;51.202;6.774;2024-03-29T22:06:57;17.70;71.80
29775;DHT22;16676;51.202;6.774;2024-03-29T22:11:00;17.70;72.60
29775;DHT22;16676;51.202;6.774;2024-03-29T22:15:02;17.70;72.50
29775;DHT22;16676;51.202;6.774;2024-03-29T22:19:04;17.70;72.60
29775;DHT22;16676;51.202;6.774;2024-03-29T22:23:08;17.70;72.60
29775;DHT22;16676;51.202;6.774;2024-03-29T22:27:10;17.70;72.00
29775;DHT22;16676;51.202;6.774;2024-03-29T22:31:12;17.70;72.40
29775;DHT22;16676;51.202;6.774;2024-03-29T22:35:14;17.70;72.30
29775;DHT22;16676;51.202;6.774;2024-03-29T22:39:16;17.70;72.30
29775;DHT22;16676;51.202;6.774;2024-03-29T22:43:19;17.70;72.00
29775;DHT22;16676;51.202;6.774;2024-03-29T22:47:21;17.70;71.70
29775;DHT22;16676;51.202;6.774;2024-03-29T22:51:22;17.70;71.90
29775;DHT22;16676;51.202;6.774;2024-03-29T22:55:24;17.70;72.00
29775;DHT22;16676;51.202;6.774;2024-03-29T22:59:28;17.70;71.90
29775;DHT22;16676;51.202;6.774;2024-03-29T23:03:30;17.70;72.40
29775;DHT22;16676;51.202;6.774;2024-03-29T23:07:32;17.70;72.20
29775;DHT22;16676;51.202;6.774;2024-03-29T23:11:34;17.70;71.90
29775;DHT22;16676;51.202;6.774;2024-03-29T23:15:37;17.70;72.10
29775;DHT22;16676;51.202;6.774;2024-03-29T23:19:39;17.70;72.10
29775;DHT22;16676;51.202;6.774;2024-03-29T23:23:41;17.70;71.70
29775;DHT22;16676;51.202;6.774;2024-03-29T23:27:42;17.70;72.30
29775;DHT22;16676;51.202;6.774;2024-03-29T23:31:45;17.70;71.80
29775;DHT22;16676;51.202;6.774;2024-03-29T23:35:51;17.60;72.20
29775;DHT22;16676;51.202;6.774;2024-03-29T23:39:53;17.70;72.50
29775;DHT22;16676;51.202;6.774;2024-03-29T23:43:55;17.70;72.30
29775;DHT22;16676;51.202;6.774;2024-03-29T23:47:58;17.70;71.90
29775;DHT22;16676;51.202;6.774;2024-03-29T23:52:00;17.70;72.50
29775;DHT22;16676;51.202;6.774;2024-03-29T23:56:04;17.70;72.60
